Time;durP1;ratioP1;P1;durP2;ratioP2;P2;SDS_P1;SDS_P2;PMS_P1;PMS_P2;Temp;Humidity;BMP_temperature;BMP_pressure;BME280_temperature;BME280_humidity;BME280_pressure;Samples;Min_cycle;Max_cycle;Signal;HPM_P1;HPM_P2
2021/12/24 00:36:25;;;;;;;7.47;3.97;;;8.40;88.40;;;;;;5036983;28;20222;-87
2021/12/24 00:38:52;;;;;;;1.90;1.67;;;8.20;90.20;;;;;;5039363;28;20664;-88
2021/12/24 00:41:19;;;;;;;4.68;3.22;;;8.40;88.90;;;;;;5038082;28;20758;-89
2021/12/24 00:43:46;;;;;;;6.10;4.22;;;8.40;89.30;;;;;;5038692;28;20201;-88
2021/12/24 00:46:13;;;;;;;4.25;3.38;;;8.40;88.90;;;;;;5020868;28;20400;-88
2021/12/24 00:48:40;;;;;;;5.45;2.65;;;8.30;89.60;;;;;;5039785;28;20310;-87
2021/12/24 00:51:19;;;;;;;5.35;3.65;;;8.40;89.80;;;;;;5039170;28;20198;-87
2021/12/24 00:56:32;;;;;;;2.03;1.50;;;8.30;90.10;;;;;;5038172;28;20237;-87
2021/12/24 00:58:59;;;;;;;4.70;3.55;;;8.20;90.30;;;;;;5039815;28;20194;-87
2021/12/24 01:01:26;;;;;;;4.90;1.95;;;8.20;90.30;;;;;;5020976;28;20230;-87
2021/12/24 01:03:53;;;;;;;4.38;2.45;;;8.30;90.30;;;;;;5038141;28;20201;-89
2021/12/24 01:06:20;;;;;;;1.80;1.50;;;8.40;90.00;;;;;;5037830;28;20221;-87
2021/12/24 01:08:49;;;;;;;3.80;1.77;;;8.40;90.30;;;;;;5038572;28;20606;-88
2021/12/24 01:11:16;;;;;;;1.70;1.60;;;8.20;90.30;;;;;;5037778;28;20624;-86
2021/12/24 01:13:44;;;;;;;3.53;1.67;;;8.20;90.30;;;;;;5024286;28;20206;-87
2021/12/24 01:16:20;;;;;;;2.33;1.70;;;8.40;90.30;;;;;;5023227;28;20226;-86
2021/12/24 01:18:56;;;;;;;3.30;1.60;;;8.40;90.30;;;;;;5021901;28;20194;-90
2021/12/24 01:21:37;;;;;;;2.13;1.73;;;8.40;90.30;;;;;;5035549;28;20568;-89
2021/12/24 01:24:12;;;;;;;2.72;1.80;;;8.40;90.30;;;;;;5037239;28;20539;-89
2021/12/24 01:26:45;;;;;;;7.22;2.65;;;8.60;89.90;;;;;;5016893;28;20194;-89
2021/12/24 01:38:58;;;;;;;2.58;2.30;;;8.70;89.00;;;;;;5036853;28;20209;-89
2021/12/24 01:52:26;;;;;;;3.42;2.03;;;8.90;88.20;;;;;;5038549;28;20189;-89
2021/12/24 02:01:49;;;;;;;2.58;1.65;;;8.90;88.10;;;;;;5037710;28;20230;-87
2021/12/24 02:07:49;;;;;;;2.25;1.92;;;8.80;88.80;;;;;;5041908;28;20189;-87
2021/12/24 02:10:25;;;;;;;8.40;6.20;;;8.90;88.40;;;;;;5042578;28;20596;-87
2021/12/24 02:12:54;;;;;;;5.43;4.18;;;9.00;88.60;;;;;;5040646;28;20324;-87
2021/12/24 02:15:30;;;;;;;2.20;1.50;;;9.10;87.20;;;;;;5040507;28;20207;-87
2021/12/24 07:23:55;;;;;;;1.52;1.42;;;8.90;66.00;;;;;;4988031;28;20714;-88
2021/12/24 07:26:23;;;;;;;3.13;1.40;;;9.00;66.00;;;;;;4982369;28;20228;-88
2021/12/24 07:28:50;;;;;;;1.58;1.38;;;9.00;66.40;;;;;;4965880;28;20196;-88
2021/12/24 07:31:17;;;;;;;1.92;1.40;;;8.90;69.30;;;;;;4998686;28;20291;-88
2021/12/24 07:33:44;;;;;;;1.40;1.30;;;8.90;69.20;;;;;;4984142;28;20197;-88
2021/12/24 07:36:11;;;;;;;1.92;1.77;;;9.00;67.20;;;;;;4983876;28;20217;-89
2021/12/24 07:38:38;;;;;;;2.33;1.38;;;9.00;69.20;;;;;;4983217;28;20196;-87
2021/12/24 07:41:07;;;;;;;1.65;1.33;;;9.00;68.40;;;;;;4981714;28;20204;-89
2021/12/24 07:43:34;;;;;;;3.17;1.40;;;9.00;69.10;;;;;;4982804;28;20676;-88
2021/12/24 07:46:02;;;;;;;4.28;1.70;;;9.10;69.90;;;;;;4981366;28;20275;-89
2021/12/24 07:48:31;;;;;;;2.38;1.55;;;9.10;69.30;;;;;;4963188;28;20251;-89
2021/12/24 07:53:50;;;;;;;2.63;1.67;;;9.10;69.10;;;;;;4982646;28;20199;-87
2021/12/24 07:56:34;;;;;;;2.10;1.70;;;9.20;68.20;;;;;;4982782;28;20236;-87
2021/12/24 07:59:01;;;;;;;1.75;1.40;;;9.20;69.90;;;;;;4983621;28;20227;-85
2021/12/24 08:01:29;;;;;;;2.00;1.50;;;9.20;71.80;;;;;;4983459;28;20315;-87
2021/12/24 08:04:09;;;;;;;2.05;1.77;;;9.10;74.00;;;;;;4985491;28;20276;-87
2021/12/24 08:06:36;;;;;;;2.53;1.90;;;9.10;74.00;;;;;;4990029;28;20239;-86
2021/12/24 08:09:06;;;;;;;2.15;1.65;;;9.10;74.00;;;;;;4969061;28;20509;-87
2021/12/24 08:12:09;;;;;;;2.15;1.40;;;9.00;74.00;;;;;;4985673;28;20199;-87
2021/12/24 10:19:46;;;;;;;1.60;1.50;;;8.50;92.30;;;;;;4981532;28;20211;-87
2021/12/24 10:22:26;;;;;;;2.78;1.50;;;8.40;92.40;;;;;;4981020;28;20228;-87
2021/12/24 10:25:01;;;;;;;3.03;1.70;;;8.50;92.60;;;;;;4963724;28;20208;-89
2021/12/24 10:27:31;;;;;;;2.17;1.70;;;8.40;93.00;;;;;;4979142;28;20232;-87
2021/12/24 10:29:58;;;;;;;1.88;1.58;;;8.40;93.10;;;;;;4979753;28;20287;-87
2021/12/24 10:32:25;;;;;;;2.40;1.60;;;8.40;93.90;;;;;;4980258;28;20224;-88
2021/12/24 10:34:55;;;;;;;4.97;1.80;;;8.30;94.10;;;;;;4981202;28;20249;-88
2021/12/24 10:37:24;;;;;;;2.50;1.63;;;8.30;94.10;;;;;;4979011;28;20231;-87
2021/12/24 10:39:53;;;;;;;5.20;1.90;;;8.30;94.30;;;;;;4979327;28;20353;-90
2021/12/24 10:42:28;;;;;;;2.45;2.00;;;8.30;94.30;;;;;;4979924;28;20224;-87
2021/12/24 10:44:57;;;;;;;2.65;2.30;;;8.40;94.30;;;;;;4980690;28;20456;-87
2021/12/24 10:47:26;;;;;;;2.47;1.90;;;8.40;94.40;;;;;;4979375;28;20224;-87
2021/12/24 10:50:27;;;;;;;2.20;1.70;;;8.40;94.00;;;;;;4979410;28;20227;-87
2021/12/24 10:55:35;;;;;;;2.55;1.58;;;8.50;93.60;;;;;;4976745;28;20252;-87
2021/12/24 10:58:04;;;;;;;2.20;2.00;;;8.50;93.60;;;;;;4977861;28;20235;-89
2021/12/24 11:00:35;;;;;;;2.00;1.67;;;8.50;94.00;;;;;;4978932;28;20196;-87
2021/12/24 11:03:04;;;;;;;2.33;1.60;;;8.50;94.40;;;;;;4978094;28;20278;-87
2021/12/24 11:05:38;;;;;;;2.05;1.65;;;8.60;94.30;;;;;;4980752;28;20213;-87
2021/12/24 11:08:08;;;;;;;2.00;1.70;;;8.60;94.40;;;;;;4979934;28;20248;-87
2021/12/24 11:10:38;;;;;;;2.13;1.60;;;8.50;94.70;;;;;;4980215;28;20216;-86
2021/12/24 11:13:12;;;;;;;2.25;1.75;;;8.50;94.70;;;;;;4979244;28;20229;-90
2021/12/24 11:15:42;;;;;;;3.58;3.05;;;8.40;95.40;;;;;;4978394;28;20208;-91
2021/12/24 11:18:14;;;;;;;3.03;1.90;;;8.50;95.50;;;;;;4978490;28;20318;-87
2021/12/24 11:20:44;;;;;;;3.08;1.63;;;8.50;95.30;;;;;;4979610;28;20197;-88
2021/12/24 11:23:12;;;;;;;3.15;2.00;;;8.40;95.40;;;;;;4978312;28;20708;-87
2021/12/24 11:25:42;;;;;;;1.95;1.80;;;8.40;95.70;;;;;;4978860;28;20201;-89
2021/12/24 11:28:10;;;;;;;3.05;2.30;;;8.40;95.80;;;;;;4978631;28;20696;-87
2021/12/24 11:30:43;;;;;;;3.95;1.90;;;8.50;95.80;;;;;;4978073;28;20216;-88
2021/12/24 11:33:14;;;;;;;2.65;1.83;;;8.40;95.80;;;;;;4977473;28;20228;-88
2021/12/24 11:35:43;;;;;;;1.83;1.63;;;8.40;95.80;;;;;;4978366;28;20207;-86
2021/12/24 11:38:14;;;;;;;2.42;1.70;;;8.30;95.80;;;;;;4981137;28;20283;-86
2021/12/24 11:40:42;;;;;;;4.47;1.80;;;8.30;95.80;;;;;;4983251;28;20664;-86
2021/12/24 11:43:09;;;;;;;3.13;2.10;;;8.20;96.20;;;;;;4982486;28;20263;-87
2021/12/24 11:45:36;;;;;;;3.08;1.60;;;8.20;96.40;;;;;;4981443;28;20205;-90
2021/12/24 11:48:05;;;;;;;2.15;1.70;;;8.20;96.00;;;;;;4980174;28;20234;-87
2021/12/24 11:50:33;;;;;;;2.83;1.67;;;8.20;96.10;;;;;;4980164;28;20554;-88
2021/12/24 11:53:06;;;;;;;1.80;1.47;;;8.20;96.10;;;;;;4979235;28;20227;-89
2021/12/24 11:55:36;;;;;;;2.92;1.80;;;8.20;96.30;;;;;;4980799;28;20267;-89
2021/12/24 11:58:07;;;;;;;3.92;1.67;;;8.20;96.60;;;;;;4981217;28;20228;-86
2021/12/24 12:00:37;;;;;;;1.88;1.60;;;8.20;96.50;;;;;;4983594;28;20201;-87
2021/12/24 12:03:05;;;;;;;4.03;1.98;;;8.20;96.50;;;;;;4980031;28;20233;-87
2021/12/24 12:05:34;;;;;;;1.80;1.60;;;8.20;96.80;;;;;;4978896;28;20680;-88
2021/12/24 12:08:33;;;;;;;7.57;2.20;;;8.20;96.60;;;;;;4978951;28;20228;-88
2021/12/24 12:11:02;;;;;;;2.47;1.52;;;8.20;96.80;;;;;;4976997;28;20200;-87
2021/12/24 12:13:45;;;;;;;2.10;1.85;;;8.20;96.70;;;;;;4979989;28;20201;-87
2021/12/24 12:16:15;;;;;;;1.83;1.70;;;8.10;96.90;;;;;;4966363;28;20231;-87
2021/12/24 12:18:47;;;;;;;2.97;2.38;;;8.20;96.80;;;;;;4983025;28;20220;-87
2021/12/24 12:21:22;;;;;;;3.38;1.70;;;8.30;96.50;;;;;;4981880;28;20580;-88
2021/12/24 12:26:43;;;;;;;1.60;1.50;;;8.30;96.90;;;;;;4979578;28;20246;-91
2021/12/24 12:29:22;;;;;;;1.98;1.70;;;8.40;96.30;;;;;;4981181;28;20590;-88
2021/12/24 12:31:53;;;;;;;3.00;1.67;;;8.30;96.40;;;;;;4982208;28;20327;-87
2021/12/24 12:34:48;;;;;;;2.38;1.60;;;8.30;96.50;;;;;;4983595;28;20287;-87
2021/12/24 12:37:17;;;;;;;2.42;1.58;;;8.30;96.40;;;;;;4983498;28;20287;-87
2021/12/24 12:39:47;;;;;;;4.88;1.70;;;8.30;96.60;;;;;;4982542;28;20263;-86
2021/12/24 12:42:17;;;;;;;2.45;1.38;;;8.30;96.40;;;;;;4982322;28;20307;-89
2021/12/24 12:44:47;;;;;;;3.05;1.55;;;8.50;95.80;;;;;;4980569;28;20213;-87
2021/12/24 12:47:16;;;;;;;1.73;1.60;;;8.40;95.80;;;;;;4978178;28;20224;-86
2021/12/24 12:49:44;;;;;;;1.70;1.50;;;8.40;95.80;;;;;;4982164;28;20668;-87
2021/12/24 12:52:21;;;;;;;4.03;1.50;;;8.50;95.80;;;;;;4981559;28;20311;-86
2021/12/24 12:54:52;;;;;;;1.58;1.20;;;8.50;95.80;;;;;;4982118;28;20196;-89
2021/12/24 12:57:28;;;;;;;4.85;1.70;;;8.50;95.80;;;;;;4976242;28;20589;-91
2021/12/24 13:00:20;;;;;;;1.63;1.35;;;8.60;95.80;;;;;;4972797;28;20790;-90
2021/12/24 13:06:09;;;;;;;2.45;1.55;;;8.60;95.80;;;;;;4977932;28;20180;-91
2021/12/24 13:08:40;;;;;;;1.58;1.40;;;8.50;95.80;;;;;;4963997;29;20559;-87
2021/12/24 13:11:12;;;;;;;3.15;1.80;;;8.50;95.80;;;;;;4963382;28;20292;-86
2021/12/24 13:13:53;;;;;;;1.80;1.30;;;8.40;96.20;;;;;;4957803;29;20649;-90
2021/12/24 13:16:23;;;;;;;1.42;1.33;;;8.40;96.20;;;;;;4956598;28;20244;-92
2021/12/24 13:18:57;;;;;;;3.15;1.58;;;8.50;95.80;;;;;;4958381;29;20217;-91
2021/12/24 13:24:35;;;;;;;1.33;1.10;;;8.50;96.20;;;;;;4915652;29;20193;-89
2021/12/24 13:27:13;;;;;;;1.67;1.40;;;8.50;96.40;;;;;;4958545;28;20225;-92
2021/12/24 13:29:40;;;;;;;1.45;1.30;;;8.60;95.90;;;;;;4958368;29;20196;-91
2021/12/24 13:32:08;;;;;;;1.38;1.20;;;8.50;95.80;;;;;;4957403;28;20308;-89
2021/12/24 13:34:36;;;;;;;3.47;1.30;;;8.50;95.90;;;;;;4958166;29;20292;-89
2021/12/24 13:37:10;;;;;;;1.92;1.48;;;8.60;95.80;;;;;;4958998;28;20225;-91
2021/12/24 13:42:42;;;;;;;2.17;1.33;;;8.60;95.80;;;;;;4960705;28;20234;-90
2021/12/24 13:45:09;;;;;;;2.17;1.40;;;8.60;95.80;;;;;;4960856;28;20189;-89
2021/12/24 13:47:55;;;;;;;1.60;1.50;;;8.60;95.90;;;;;;4965350;28;20199;-89
2021/12/24 13:56:51;;;;;;;1.27;1.17;;;8.70;95.70;;;;;;4951701;28;20225;-87
2021/12/24 13:59:24;;;;;;;2.88;1.50;;;8.80;95.60;;;;;;4944150;29;20637;-87
2021/12/24 14:01:52;;;;;;;1.88;1.35;;;8.70;95.40;;;;;;4959405;28;20221;-87
2021/12/24 14:04:25;;;;;;;1.50;1.27;;;8.70;95.60;;;;;;4964689;29;20189;-87
2021/12/24 14:06:56;;;;;;;1.80;1.35;;;8.80;95.70;;;;;;4961984;29;20673;-87
2021/12/24 14:10:15;;;;;;;2.28;1.30;;;8.80;94.80;;;;;;4963582;28;20200;-87
2021/12/24 14:13:02;;;;;;;1.50;1.40;;;8.80;94.70;;;;;;4960330;28;20256;-87
2021/12/24 14:29:32;;;;;;;1.55;1.20;;;8.70;95.60;;;;;;6018464;22;5196323;-87
2021/12/24 14:32:04;;;;;;;1.73;1.33;;;8.80;94.80;;;;;;6209403;22;20419;-87
2021/12/24 14:37:58;;;;;;;4.15;1.50;;;8.80;94.90;;;;;;6078767;23;20213;-87
2021/12/24 14:41:00;;;;;;;2.03;1.30;;;8.60;95.30;;;;;;6084008;23;20236;-87
2021/12/24 14:43:34;;;;;;;1.63;1.30;;;8.70;95.40;;;;;;6074684;23;20199;-87
2021/12/24 14:46:08;;;;;;;1.80;1.40;;;8.60;95.80;;;;;;6077796;23;20177;-87
2021/12/24 14:48:37;;;;;;;2.17;1.50;;;8.60;95.80;;;;;;6082320;23;20180;-87
2021/12/24 14:54:30;;;;;;;4.28;1.70;;;8.50;95.80;;;;;;6082436;23;20140;-87
2021/12/24 14:56:57;;;;;;;2.03;1.33;;;8.50;95.80;;;;;;6095961;23;20205;-87
2021/12/24 14:59:24;;;;;;;1.30;1.20;;;8.40;95.80;;;;;;6172276;23;20177;-87
2021/12/24 15:09:55;;;;;;;1.50;1.38;;;8.50;95.80;;;;;;6172871;23;20606;-87
2021/12/24 15:12:26;;;;;;;1.90;1.25;;;8.40;95.80;;;;;;6172788;23;20170;-87
2021/12/24 15:14:55;;;;;;;1.65;1.38;;;8.40;95.80;;;;;;6172925;23;20166;-87
2021/12/24 15:22:31;;;;;;;1.20;1.10;;;8.40;95.80;;;;;;6261608;22;20176;-87
2021/12/24 15:25:33;;;;;;;1.20;1.10;;;8.30;95.80;;;;;;6263205;23;20615;-87
2021/12/24 15:28:12;;;;;;;2.35;1.58;;;8.40;95.80;;;;;;6207793;23;20196;-88
2021/12/24 15:30:41;;;;;;;1.45;1.35;;;8.50;95.60;;;;;;6254321;23;20185;-87
2021/12/24 15:33:10;;;;;;;1.33;1.20;;;8.40;95.80;;;;;;6250676;23;20197;-87
2021/12/24 15:35:38;;;;;;;1.85;1.20;;;8.40;95.80;;;;;;6256290;23;20173;-86
2021/12/24 15:38:07;;;;;;;1.98;1.20;;;8.40;95.80;;;;;;6256271;23;20247;-86
2021/12/24 15:40:35;;;;;;;2.58;1.20;;;8.40;95.80;;;;;;6257959;23;20232;-86
2021/12/24 15:46:45;;;;;;;3.20;1.40;;;8.30;95.80;;;;;;6255868;22;20152;-86
2021/12/24 15:49:12;;;;;;;1.42;1.20;;;8.30;95.80;;;;;;6256957;23;20251;-86
2021/12/24 15:51:42;;;;;;;1.52;1.42;;;8.40;95.80;;;;;;6259619;22;20609;-87
2021/12/24 15:54:43;;;;;;;1.38;1.27;;;8.40;95.80;;;;;;6259376;23;20233;-87
2021/12/24 15:57:10;;;;;;;2.72;1.38;;;8.20;96.50;;;;;;6245816;22;20205;-87
2021/12/24 15:59:39;;;;;;;1.90;1.20;;;8.20;96.60;;;;;;6258119;23;20169;-87
2021/12/24 16:02:14;;;;;;;1.88;1.50;;;8.20;96.90;;;;;;6256498;23;20223;-87
2021/12/24 16:04:49;;;;;;;1.92;1.60;;;8.20;97.20;;;;;;6256606;23;20165;-87
2021/12/24 16:07:16;;;;;;;1.50;1.40;;;8.10;97.30;;;;;;6229434;23;20204;-87
2021/12/24 16:09:43;;;;;;;1.30;1.20;;;8.10;97.60;;;;;;6231862;23;20170;-87
2021/12/24 16:12:11;;;;;;;1.50;1.40;;;8.10;97.60;;;;;;6256191;23;20217;-86
2021/12/24 16:14:39;;;;;;;2.63;1.77;;;8.20;97.60;;;;;;6256811;23;20160;-87
2021/12/24 16:17:06;;;;;;;1.60;1.50;;;8.30;97.50;;;;;;6256950;23;20645;-87
2021/12/24 16:19:35;;;;;;;1.40;1.30;;;8.30;97.60;;;;;;6256282;23;20197;-86
2021/12/24 16:22:03;;;;;;;1.50;1.40;;;8.20;97.90;;;;;;6255845;23;20221;-87
2021/12/24 16:24:31;;;;;;;2.05;1.40;;;8.20;98.00;;;;;;6258024;22;20672;-87
2021/12/24 16:27:03;;;;;;;1.40;1.30;;;8.30;97.80;;;;;;6254558;23;20640;-87
2021/12/24 16:30:02;;;;;;;3.63;1.63;;;8.30;97.70;;;;;;6256709;23;20178;-86
2021/12/24 16:32:32;;;;;;;1.50;1.40;;;8.20;98.10;;;;;;6255345;23;20221;-86
2021/12/24 16:35:32;;;;;;;1.95;1.58;;;8.20;98.40;;;;;;6230826;23;20213;-87
2021/12/24 16:38:00;;;;;;;1.80;1.55;;;8.10;98.60;;;;;;6256006;22;20201;-86
2021/12/24 16:40:27;;;;;;;1.50;1.40;;;8.10;98.80;;;;;;6255426;23;20193;-86
2021/12/24 16:42:56;;;;;;;2.33;1.60;;;8.00;99.00;;;;;;6255723;23;20225;-87
2021/12/24 16:45:25;;;;;;;3.08;1.58;;;7.90;99.40;;;;;;6256128;23;20233;-86
2021/12/24 16:47:52;;;;;;;2.50;1.75;;;8.00;99.50;;;;;;6256155;22;20248;-87
2021/12/24 16:53:46;;;;;;;2.95;1.60;;;7.90;99.90;;;;;;6245336;23;20184;-88
2021/12/24 16:56:13;;;;;;;3.08;1.67;;;7.90;99.90;;;;;;6261360;22;20252;-87
2021/12/24 16:58:40;;;;;;;2.65;1.60;;;7.90;99.90;;;;;;6228978;22;20196;-90
2021/12/24 17:01:19;;;;;;;2.10;1.90;;;8.00;99.90;;;;;;6255700;22;20181;-88
2021/12/24 17:03:47;;;;;;;1.92;1.80;;;8.00;99.90;;;;;;6257600;22;20210;-87
2021/12/24 17:06:15;;;;;;;2.35;2.00;;;8.00;99.80;;;;;;6256558;23;20188;-88
2021/12/24 17:08:43;;;;;;;1.70;1.60;;;7.90;99.90;;;;;;6258176;23;20240;-88
2021/12/24 17:11:11;;;;;;;2.55;1.88;;;7.90;99.90;;;;;;6229076;23;20509;-86
2021/12/24 17:13:42;;;;;;;2.08;1.60;;;8.00;99.90;;;;;;6254311;23;20153;-86
2021/12/24 17:18:44;;;;;;;1.70;1.60;;;8.00;99.90;;;;;;6251750;22;20193;-87
2021/12/24 17:21:12;;;;;;;2.08;1.80;;;8.00;99.90;;;;;;6253449;22;20176;-86
2021/12/24 17:23:39;;;;;;;1.88;1.42;;;8.00;99.90;;;;;;6253371;23;20173;-87
2021/12/24 17:26:07;;;;;;;1.67;1.58;;;8.00;99.90;;;;;;6252456;22;20173;-86
2021/12/24 17:28:36;;;;;;;1.70;1.60;;;8.00;99.90;;;;;;6250261;23;20226;-88
2021/12/24 17:31:05;;;;;;;2.05;1.70;;;8.00;99.90;;;;;;6249114;22;20195;-88
2021/12/24 17:34:12;;;;;;;1.50;1.40;;;8.00;99.90;;;;;;6248941;23;20242;-89
2021/12/24 17:36:40;;;;;;;1.70;1.60;;;7.90;99.90;;;;;;6248230;22;20199;-88
2021/12/24 17:39:07;;;;;;;1.60;1.50;;;7.90;99.90;;;;;;6250650;23;20207;-85
2021/12/24 17:41:37;;;;;;;1.75;1.50;;;7.90;99.90;;;;;;6252716;22;20243;-86
2021/12/24 17:44:06;;;;;;;1.83;1.52;;;8.00;99.90;;;;;;6227175;23;20663;-87
2021/12/24 17:46:33;;;;;;;1.90;1.80;;;8.00;99.90;;;;;;6257206;22;20168;-86
2021/12/24 17:49:00;;;;;;;1.50;1.40;;;8.00;99.90;;;;;;6228322;23;20223;-87
2021/12/24 17:51:28;;;;;;;2.08;1.80;;;8.00;99.90;;;;;;6229023;23;20204;-87
2021/12/24 17:54:18;;;;;;;2.40;1.70;;;8.10;99.90;;;;;;6257962;23;20164;-86
2021/12/24 17:56:45;;;;;;;2.60;1.80;;;8.20;99.90;;;;;;6254480;22;20197;-88
2021/12/24 17:59:14;;;;;;;3.60;1.73;;;8.20;99.80;;;;;;6227934;23;20209;-87
2021/12/24 18:01:41;;;;;;;3.08;1.98;;;8.20;99.90;;;;;;6250030;22;20212;-89
2021/12/24 18:04:08;;;;;;;2.22;1.63;;;8.00;99.90;;;;;;6250819;23;20176;-87
2021/12/24 18:06:36;;;;;;;2.17;1.80;;;8.00;99.90;;;;;;6251953;22;20196;-88
2021/12/24 18:09:04;;;;;;;2.97;2.08;;;7.90;99.90;;;;;;6223082;23;20173;-89
2021/12/24 18:11:31;;;;;;;2.55;1.80;;;7.90;99.90;;;;;;6223029;23;20221;-88
2021/12/24 18:13:58;;;;;;;2.22;2.00;;;7.90;99.90;;;;;;6249461;23;20189;-87
2021/12/24 18:16:26;;;;;;;2.45;1.83;;;7.80;99.90;;;;;;6249384;22;20205;-86
2021/12/24 18:18:53;;;;;;;2.35;2.05;;;7.90;99.90;;;;;;6252767;23;20215;-87
2021/12/24 18:21:21;;;;;;;2.50;2.20;;;7.80;99.90;;;;;;6249735;22;20169;-86
2021/12/24 18:23:48;;;;;;;3.45;2.00;;;7.80;99.90;;;;;;6251464;23;20205;-86
2021/12/24 18:26:16;;;;;;;4.30;2.15;;;7.80;99.90;;;;;;6252123;22;20204;-87
2021/12/24 18:28:43;;;;;;;3.08;2.13;;;7.80;99.90;;;;;;6251711;23;20220;-86
2021/12/24 18:31:11;;;;;;;3.10;2.25;;;7.90;99.90;;;;;;6252409;22;20624;-86
2021/12/24 18:33:39;;;;;;;2.95;2.15;;;7.90;99.90;;;;;;6253142;23;20653;-86
2021/12/24 18:36:11;;;;;;;3.85;3.45;;;7.90;99.90;;;;;;6251471;22;20547;-86
2021/12/24 18:38:39;;;;;;;3.72;2.50;;;7.90;99.90;;;;;;6226102;23;20232;-87
2021/12/24 18:41:06;;;;;;;3.47;2.05;;;7.90;99.90;;;;;;6253039;22;20259;-87
2021/12/24 18:43:33;;;;;;;2.72;1.85;;;7.90;99.90;;;;;;6253332;23;20208;-86
2021/12/24 18:46:02;;;;;;;3.15;2.22;;;7.80;99.90;;;;;;6253679;23;20795;-86
2021/12/24 18:48:46;;;;;;;3.70;1.98;;;7.90;99.90;;;;;;6196366;23;20244;-86
2021/12/24 18:51:14;;;;;;;5.80;2.20;;;8.00;99.90;;;;;;6223277;23;20212;-87
2021/12/24 18:53:41;;;;;;;2.97;2.20;;;7.90;99.90;;;;;;6224680;23;20174;-86
2021/12/24 18:56:09;;;;;;;3.00;2.33;;;7.90;99.90;;;;;;6222478;23;20172;-86
2021/12/24 18:58:37;;;;;;;2.60;2.40;;;7.90;99.90;;;;;;6196113;23;20197;-86
2021/12/24 19:01:04;;;;;;;2.53;1.92;;;7.90;99.90;;;;;;6221306;23;20543;-86
2021/12/24 19:03:32;;;;;;;2.15;1.88;;;7.90;99.90;;;;;;6224852;23;20177;-86
2021/12/24 19:06:01;;;;;;;2.85;2.17;;;7.80;99.90;;;;;;6225446;23;20170;-87
2021/12/24 19:08:28;;;;;;;3.17;1.90;;;7.80;99.90;;;;;;6224030;23;20209;-87
2021/12/24 19:10:56;;;;;;;2.20;2.00;;;7.90;99.90;;;;;;6223941;23;20209;-89
2021/12/24 19:13:24;;;;;;;3.58;2.40;;;7.80;99.90;;;;;;6224318;23;20236;-87
2021/12/24 19:15:52;;;;;;;2.65;2.22;;;7.80;99.90;;;;;;6223720;23;20236;-86
2021/12/24 19:18:20;;;;;;;3.65;2.55;;;7.80;99.90;;;;;;6223717;23;20197;-86
2021/12/24 19:20:47;;;;;;;3.22;2.10;;;7.90;99.90;;;;;;6197579;23;20480;-87
2021/12/24 19:23:16;;;;;;;2.47;2.00;;;7.90;99.90;;;;;;6223808;23;20265;-87
2021/12/24 19:25:43;;;;;;;4.80;2.40;;;8.00;99.90;;;;;;6197403;23;20166;-87
2021/12/24 19:28:11;;;;;;;2.95;2.20;;;7.90;99.80;;;;;;6223561;23;20198;-87
2021/12/24 19:30:39;;;;;;;12.23;8.82;;;7.90;99.70;;;;;;6224436;23;20170;-86
2021/12/24 19:33:07;;;;;;;2.38;2.17;;;7.80;99.90;;;;;;6223606;23;20205;-86
2021/12/24 19:35:35;;;;;;;2.10;1.90;;;7.80;99.60;;;;;;6224820;23;20172;-86
2021/12/24 19:38:04;;;;;;;2.53;2.15;;;7.90;99.50;;;;;;6222852;23;20198;-86
2021/12/24 19:40:37;;;;;;;7.45;6.43;;;7.80;99.50;;;;;;6198781;23;20201;-86
2021/12/24 19:43:08;;;;;;;3.05;2.35;;;7.80;99.40;;;;;;6223439;23;20209;-85
2021/12/24 19:45:36;;;;;;;2.70;2.10;;;7.80;99.40;;;;;;6223969;23;20170;-85
2021/12/24 19:48:04;;;;;;;2.35;1.85;;;7.80;99.00;;;;;;6197190;23;20229;-86
2021/12/24 19:50:31;;;;;;;5.78;1.75;;;7.70;99.30;;;;;;6224257;23;20172;-86
2021/12/24 19:53:01;;;;;;;5.57;1.95;;;7.70;99.40;;;;;;6196276;23;20197;-86
2021/12/24 19:55:28;;;;;;;2.97;2.10;;;7.80;99.20;;;;;;6224369;23;20215;-86
2021/12/24 19:57:57;;;;;;;2.92;2.03;;;7.80;99.10;;;;;;6195899;23;20198;-86
2021/12/24 20:00:28;;;;;;;2.00;1.80;;;7.80;98.70;;;;;;6195620;23;20176;-89
2021/12/24 20:02:55;;;;;;;3.63;1.98;;;7.90;98.30;;;;;;6219583;23;20224;-86
2021/12/24 20:05:24;;;;;;;2.88;2.45;;;7.90;98.30;;;;;;6225408;23;20186;-86
2021/12/24 20:07:53;;;;;;;2.08;1.80;;;8.00;98.10;;;;;;6195858;23;20194;-88
2021/12/24 20:10:22;;;;;;;2.38;1.90;;;8.00;97.90;;;;;;6219506;23;20638;-90
2021/12/24 20:12:50;;;;;;;2.60;1.90;;;8.00;97.80;;;;;;6192863;23;20173;-88
2021/12/24 20:15:37;;;;;;;5.00;1.70;;;8.00;97.90;;;;;;6223873;23;20222;-86
2021/12/24 20:19:01;;;;;;;3.42;1.80;;;7.90;98.00;;;;;;6221449;23;20285;-88
2021/12/24 20:21:28;;;;;;;2.83;1.90;;;8.00;97.90;;;;;;6219348;23;20241;-89
2021/12/24 20:23:55;;;;;;;2.00;1.60;;;8.10;97.90;;;;;;6192665;23;20166;-89
2021/12/24 20:26:22;;;;;;;3.35;2.28;;;8.10;97.90;;;;;;6221897;23;20226;-86
2021/12/24 20:28:49;;;;;;;4.35;2.00;;;8.00;98.30;;;;;;6224545;23;20509;-86
2021/12/24 20:31:18;;;;;;;2.67;1.75;;;8.00;98.30;;;;;;6224112;23;20237;-86
2021/12/24 20:33:45;;;;;;;1.83;1.67;;;8.10;98.30;;;;;;6224943;23;20154;-86
2021/12/24 20:36:22;;;;;;;4.35;1.90;;;8.00;98.30;;;;;;6173320;23;20205;-85
2021/12/24 20:38:50;;;;;;;2.92;1.60;;;8.10;98.30;;;;;;6224775;23;20186;-86
2021/12/24 20:41:18;;;;;;;2.08;1.70;;;8.00;98.50;;;;;;6222533;23;20618;-86
2021/12/24 20:43:46;;;;;;;3.17;2.60;;;8.10;98.50;;;;;;6223971;23;20249;-88
2021/12/24 20:46:20;;;;;;;4.13;2.47;;;8.00;98.30;;;;;;6219217;23;20192;-87
2021/12/24 20:48:47;;;;;;;2.28;1.90;;;8.10;98.10;;;;;;6195173;23;20510;-87
2021/12/24 20:51:14;;;;;;;4.38;3.17;;;8.10;98.00;;;;;;6221078;23;20252;-87
2021/12/24 20:53:50;;;;;;;2.00;1.75;;;8.20;97.90;;;;;;6221258;23;20159;-86
2021/12/24 20:56:18;;;;;;;3.28;2.05;;;8.20;97.60;;;;;;6219205;23;20179;-87
2021/12/24 20:58:45;;;;;;;2.38;1.50;;;8.30;97.40;;;;;;6193937;23;20232;-87
2021/12/24 21:01:13;;;;;;;2.42;1.60;;;8.30;97.40;;;;;;6219227;23;20201;-87
2021/12/24 21:03:42;;;;;;;1.67;1.58;;;8.30;97.30;;;;;;6219402;23;20240;-88
2021/12/24 21:06:09;;;;;;;1.70;1.60;;;8.30;97.40;;;;;;6191909;23;20172;-89
2021/12/24 21:08:36;;;;;;;2.25;1.38;;;8.30;97.50;;;;;;6193454;23;20181;-87
2021/12/24 21:11:04;;;;;;;2.13;1.33;;;8.20;97.70;;;;;;6227217;23;20170;-86
2021/12/24 21:13:31;;;;;;;2.38;1.48;;;8.30;97.70;;;;;;6195851;23;20181;-87
2021/12/24 21:15:59;;;;;;;1.40;1.27;;;8.20;97.90;;;;;;6222489;23;20232;-86
2021/12/24 21:18:27;;;;;;;3.30;2.00;;;8.20;98.00;;;;;;6220479;22;20281;-87
2021/12/24 21:20:56;;;;;;;2.80;1.30;;;8.10;98.30;;;;;;6222511;23;20193;-86
2021/12/24 21:23:26;;;;;;;1.67;1.30;;;8.20;99.00;;;;;;6223665;23;20256;-86
2021/12/24 21:26:02;;;;;;;1.85;1.42;;;8.20;99.00;;;;;;6223666;23;20158;-86
2021/12/24 21:28:29;;;;;;;1.42;1.17;;;8.10;99.10;;;;;;6196848;23;20193;-86
2021/12/24 21:30:57;;;;;;;2.83;1.20;;;8.10;99.60;;;;;;6224231;23;20197;-85
2021/12/24 21:33:24;;;;;;;1.85;1.30;;;8.00;99.80;;;;;;6222226;23;20224;-86
2021/12/24 21:35:52;;;;;;;2.00;1.48;;;8.00;99.90;;;;;;6195825;23;20173;-86
2021/12/24 21:38:23;;;;;;;2.45;1.13;;;8.00;99.90;;;;;;6221709;23;20285;-86
2021/12/24 21:40:50;;;;;;;1.40;1.10;;;7.90;99.90;;;;;;6222613;23;20292;-87
2021/12/24 21:43:18;;;;;;;2.10;1.20;;;7.90;99.90;;;;;;6221178;23;20257;-87
2021/12/24 21:45:47;;;;;;;1.77;1.20;;;7.90;99.90;;;;;;6222465;23;20173;-86
2021/12/24 21:48:18;;;;;;;2.28;1.58;;;7.90;99.90;;;;;;6220120;23;20216;-87
2021/12/24 21:50:46;;;;;;;2.45;1.33;;;8.00;99.90;;;;;;6222717;23;20161;-86
2021/12/24 21:53:13;;;;;;;1.58;1.10;;;8.00;99.90;;;;;;6222132;23;20272;-86
2021/12/24 21:55:43;;;;;;;1.30;1.20;;;7.90;99.90;;;;;;6197318;23;20678;-86
2021/12/24 21:58:10;;;;;;;1.20;1.10;;;8.00;99.90;;;;;;6222253;23;20276;-86
2021/12/24 22:00:38;;;;;;;1.45;1.35;;;8.00;99.90;;;;;;6223656;23;20197;-86
2021/12/24 22:03:10;;;;;;;1.35;1.08;;;8.00;99.90;;;;;;6221779;23;20198;-86
2021/12/24 22:08:26;;;;;;;1.73;1.33;;;8.00;99.90;;;;;;6176555;23;20201;-85
2021/12/24 22:11:00;;;;;;;1.60;1.50;;;8.00;99.90;;;;;;6223293;23;20567;-86
2021/12/24 22:13:29;;;;;;;2.03;1.40;;;8.00;99.90;;;;;;6221980;23;20284;-88
2021/12/24 22:26:20;;;;;;;1.48;1.30;;;8.00;99.90;;;;;;6197252;22;20194;-86
2021/12/24 22:28:49;;;;;;;1.30;1.20;;;8.00;99.90;;;;;;6166277;23;20163;-86
2021/12/24 22:31:18;;;;;;;1.53;1.43;;;7.90;99.90;;;;;;6194856;23;20158;-86
2021/12/24 22:33:46;;;;;;;1.33;1.20;;;8.00;99.90;;;;;;6222926;23;20170;-86
2021/12/24 22:36:13;;;;;;;2.15;1.45;;;8.00;99.90;;;;;;6221461;23;20244;-86
2021/12/24 22:38:57;;;;;;;1.27;1.10;;;7.90;99.90;;;;;;6194030;23;20242;-86
2021/12/24 22:41:25;;;;;;;2.72;1.70;;;7.90;99.90;;;;;;6195348;23;20245;-87
2021/12/24 22:43:53;;;;;;;3.95;1.70;;;7.90;99.90;;;;;;6195102;23;20226;-86
2021/12/24 22:46:20;;;;;;;1.40;1.30;;;7.90;99.90;;;;;;6195407;23;20193;-85
2021/12/24 22:48:50;;;;;;;1.55;1.30;;;8.00;99.90;;;;;;6195571;23;20544;-86
2021/12/24 22:51:18;;;;;;;1.98;1.63;;;8.10;99.80;;;;;;6195274;23;20198;-86
2021/12/24 22:53:45;;;;;;;1.50;1.40;;;8.10;99.60;;;;;;6195459;23;20179;-86
2021/12/24 22:56:12;;;;;;;1.90;1.70;;;8.10;99.50;;;;;;6194547;23;20241;-86
2021/12/24 22:58:41;;;;;;;1.45;1.35;;;8.10;99.40;;;;;;6195628;23;20246;-86